Time;durP1;ratioP1;P1;durP2;ratioP2;P2;SDS_P1;SDS_P2;PMS_P1;PMS_P2;Temp;Humidity;BMP_temperature;BMP_pressure;BME280_temperature;BME280_humidity;BME280_pressure;Samples;Min_cycle;Max_cycle;Signal;HPM_P1;HPM_P2
2023/02/02 00:01:02;;;;;;;11.13;4.03;;;;;;;4.20;100.00;100403.91;5060675;28;20526;-67
2023/02/02 00:03:30;;;;;;;18.83;3.73;;;;;;;4.22;100.00;100402.00;5066551;28;20490;-67
2023/02/02 00:05:56;;;;;;;24.40;4.70;;;;;;;4.15;100.00;100406.81;5079919;28;20472;-67
2023/02/02 00:08:23;;;;;;;14.53;3.87;;;;;;;4.21;100.00;100399.44;5080922;28;20460;-69
2023/02/02 00:10:50;;;;;;;12.17;3.43;;;;;;;4.18;100.00;100411.06;5059413;28;20501;-69
2023/02/02 00:13:17;;;;;;;20.40;4.40;;;;;;;4.17;100.00;100408.50;5060866;28;20497;-69
2023/02/02 00:15:46;;;;;;;13.80;3.27;;;;;;;4.14;100.00;100409.56;5059677;28;20550;-69
2023/02/02 00:18:13;;;;;;;15.00;4.93;;;;;;;4.20;100.00;100414.50;5060824;28;21001;-69
2023/02/02 00:20:41;;;;;;;17.47;4.57;;;;;;;4.14;100.00;100405.09;5059274;28;20480;-69
2023/02/02 00:23:07;;;;;;;20.63;5.23;;;;;;;4.18;100.00;100420.81;5080341;28;20491;-69
2023/02/02 00:25:44;;;;;;;20.33;4.47;;;;;;;4.19;100.00;100409.28;5067174;28;21009;-69
2023/02/02 00:28:12;;;;;;;13.10;3.20;;;;;;;4.24;100.00;100415.16;5067065;28;20464;-68
2023/02/02 00:30:39;;;;;;;16.27;4.03;;;;;;;4.20;100.00;100413.63;5083103;28;20474;-68
2023/02/02 00:33:05;;;;;;;17.97;3.40;;;;;;;4.08;100.00;100421.38;5084375;28;20925;-69
2023/02/02 00:35:32;;;;;;;21.80;3.93;;;;;;;4.10;100.00;100418.66;5083361;28;20544;-69
2023/02/02 00:38:00;;;;;;;14.63;4.70;;;;;;;4.13;100.00;100414.00;5078442;28;20461;-68
2023/02/02 00:40:27;;;;;;;16.57;5.00;;;;;;;4.14;100.00;100420.16;5063029;28;20492;-68
2023/02/02 00:42:54;;;;;;;11.50;4.30;;;;;;;4.06;100.00;100419.75;5059272;28;20497;-68
2023/02/02 00:45:19;;;;;;;24.07;4.10;;;;;;;4.19;100.00;100423.34;5064030;28;20457;-69
2023/02/02 00:47:48;;;;;;;15.27;3.37;;;;;;;4.03;100.00;100418.16;5066467;28;20469;-68
2023/02/02 00:50:18;;;;;;;14.80;2.80;;;;;;;4.05;100.00;100424.22;5083622;28;20482;-69
2023/02/02 00:52:45;;;;;;;26.63;3.60;;;;;;;4.03;100.00;100417.28;5070741;28;21253;-69
2023/02/02 00:55:13;;;;;;;15.67;4.00;;;;;;;4.07;100.00;100432.91;5067435;28;20500;-69
2023/02/02 00:57:40;;;;;;;17.47;4.17;;;;;;;4.02;100.00;100427.03;5083619;28;20452;-68
2023/02/02 01:00:09;;;;;;;22.80;4.00;;;;;;;3.92;100.00;100425.91;5083170;28;20463;-68
2023/02/02 01:02:35;;;;;;;17.37;4.47;;;;;;;3.97;100.00;100429.13;5084373;28;20471;-68
2023/02/02 01:05:02;;;;;;;15.53;3.60;;;;;;;3.89;100.00;100423.44;5063743;28;20469;-68
2023/02/02 01:07:29;;;;;;;14.50;3.63;;;;;;;4.05;100.00;100431.31;5073654;28;20471;-69
2023/02/02 01:09:56;;;;;;;13.90;3.43;;;;;;;3.99;100.00;100423.72;5084083;28;20472;-69
2023/02/02 01:12:24;;;;;;;17.13;3.90;;;;;;;3.98;100.00;100437.94;5043778;28;20497;-69
2023/02/02 01:14:51;;;;;;;16.63;3.40;;;;;;;4.01;100.00;100438.59;5058627;28;20503;-69
2023/02/02 01:17:18;;;;;;;13.43;3.10;;;;;;;4.00;100.00;100436.03;5062844;28;20679;-69
2023/02/02 01:19:44;;;;;;;11.10;2.60;;;;;;;3.91;100.00;100438.28;5062979;28;20450;-67
2023/02/02 01:22:11;;;;;;;16.47;3.80;;;;;;;3.92;100.00;100439.13;5062579;28;20505;-66
2023/02/02 01:24:38;;;;;;;8.17;3.37;;;;;;;3.97;100.00;100439.69;5064291;28;20473;-66
2023/02/02 01:27:05;;;;;;;17.13;3.67;;;;;;;3.99;100.00;100434.31;5062853;28;20516;-67
2023/02/02 01:29:33;;;;;;;14.73;2.70;;;;;;;3.96;100.00;100448.59;5069575;28;20517;-67
2023/02/02 01:32:00;;;;;;;12.47;3.10;;;;;;;4.05;100.00;100453.31;5077711;28;20472;-67
2023/02/02 01:34:27;;;;;;;11.70;2.90;;;;;;;4.03;100.00;100444.63;5083208;28;20468;-67
2023/02/02 01:36:53;;;;;;;10.37;3.03;;;;;;;3.98;100.00;100452.00;5079844;28;20511;-68
2023/02/02 01:39:20;;;;;;;18.90;4.33;;;;;;;3.90;100.00;100448.94;5068318;28;20492;-68
2023/02/02 01:41:46;;;;;;;16.20;2.97;;;;;;;3.90;100.00;100441.84;5062382;28;20477;-68
2023/02/02 01:45:05;;;;;;;16.07;3.17;;;;;;;3.94;100.00;100448.69;5063312;28;20504;-67
2023/02/02 01:47:37;;;;;;;8.90;3.20;;;;;;;3.84;100.00;100446.69;4995078;28;21222;-68
2023/02/02 01:50:06;;;;;;;15.63;2.67;;;;;;;3.79;100.00;100454.91;5023604;28;21056;-68
2023/02/02 01:52:35;;;;;;;12.70;3.50;;;;;;;3.72;100.00;100461.50;5042532;28;20530;-68
2023/02/02 01:55:07;;;;;;;13.13;2.77;;;;;;;3.73;100.00;100457.91;5043314;28;20542;-67
2023/02/02 01:57:35;;;;;;;12.23;2.80;;;;;;;3.76;100.00;100450.63;5042037;28;20473;-68
2023/02/02 02:00:05;;;;;;;15.13;2.80;;;;;;;3.68;100.00;100468.75;5042500;28;20446;-68
2023/02/02 02:02:34;;;;;;;15.67;2.90;;;;;;;3.71;100.00;100468.56;5081306;28;20492;-68
2023/02/02 02:05:01;;;;;;;11.17;3.53;;;;;;;3.72;100.00;100461.50;5075683;28;20464;-68
2023/02/02 02:07:28;;;;;;;10.83;3.80;;;;;;;3.66;100.00;100470.63;5066510;28;20488;-68
2023/02/02 02:09:55;;;;;;;14.37;2.80;;;;;;;3.66;100.00;100470.63;5074232;28;20487;-69
2023/02/02 02:12:21;;;;;;;14.37;3.50;;;;;;;3.64;100.00;100483.09;5079228;28;20472;-68
2023/02/02 02:17:59;;;;;;;10.63;3.07;;;;;;;3.68;100.00;100473.19;5027867;28;20466;-68
2023/02/02 02:26:51;;;;;;;12.63;3.10;;;;;;;3.75;100.00;100483.31;5074462;28;20518;-68
2023/02/02 02:29:38;;;;;;;17.60;2.60;;;;;;;3.75;100.00;100480.69;5072871;28;20484;-67
2023/02/02 02:32:23;;;;;;;15.40;4.43;;;;;;;3.85;100.00;100480.97;5072954;28;20476;-68
2023/02/02 02:34:55;;;;;;;11.60;2.73;;;;;;;3.93;100.00;100483.16;5061943;28;20493;-67
2023/02/02 02:37:30;;;;;;;8.57;3.03;;;;;;;3.98;100.00;100474.97;5061586;28;20504;-68
2023/02/02 02:40:03;;;;;;;9.40;3.13;;;;;;;4.00;100.00;100486.28;5061766;28;20871;-68
2023/02/02 02:42:33;;;;;;;12.83;3.20;;;;;;;4.11;100.00;100484.69;5062404;28;21051;-68
2023/02/02 02:45:02;;;;;;;19.90;4.10;;;;;;;4.18;100.00;100482.50;5075811;28;20469;-68
2023/02/02 02:47:32;;;;;;;8.83;2.53;;;;;;;4.25;100.00;100486.50;5062052;28;20489;-68
2023/02/02 02:49:58;;;;;;;13.53;2.63;;;;;;;4.27;100.00;100489.91;5062482;28;20962;-67
2023/02/02 02:52:25;;;;;;;15.70;2.23;;;;;;;4.36;100.00;100490.25;5060762;28;20496;-68
2023/02/02 02:54:53;;;;;;;13.73;2.33;;;;;;;4.32;100.00;100487.81;5062409;28;20500;-68
2023/02/02 02:57:41;;;;;;;11.70;3.63;;;;;;;4.36;100.00;100488.47;5061282;28;20497;-69
2023/02/02 03:00:18;;;;;;;12.43;3.00;;;;;;;4.38;100.00;100493.69;5062356;28;20492;-69
2023/02/02 03:02:51;;;;;;;7.30;2.30;;;;;;;4.45;100.00;100495.00;5061994;28;20455;-68
2023/02/02 03:05:26;;;;;;;9.23;3.83;;;;;;;4.40;100.00;100491.78;5076724;28;20467;-65
2023/02/02 03:07:59;;;;;;;13.57;3.90;;;;;;;4.50;100.00;100501.72;5080640;28;20460;-66
2023/02/02 03:10:29;;;;;;;14.60;4.57;;;;;;;4.38;100.00;100502.47;5075848;28;20524;-65
2023/02/02 03:12:56;;;;;;;9.20;2.70;;;;;;;4.33;100.00;100494.81;5062012;28;20461;-65
2023/02/02 03:15:23;;;;;;;13.57;3.17;;;;;;;4.41;100.00;100497.00;5061179;28;20517;-64
2023/02/02 03:17:52;;;;;;;7.93;2.20;;;;;;;4.17;100.00;100491.41;5062106;28;21005;-64
2023/02/02 03:20:19;;;;;;;9.00;2.40;;;;;;;4.34;100.00;100498.31;5060287;28;20965;-64
2023/02/02 03:22:46;;;;;;;12.00;2.47;;;;;;;4.36;100.00;100491.13;5078797;28;20495;-65
2023/02/02 03:25:13;;;;;;;10.40;2.97;;;;;;;4.32;100.00;100497.53;5076447;28;20909;-65
2023/02/02 03:27:40;;;;;;;11.53;2.50;;;;;;;4.32;100.00;100497.53;5061321;28;20522;-65
2023/02/02 03:30:09;;;;;;;10.23;2.50;;;;;;;4.25;100.00;100501.50;5060053;28;20456;-68
2023/02/02 03:32:36;;;;;;;11.40;2.90;;;;;;;4.29;100.00;100501.25;5063957;28;20453;-67
2023/02/02 03:35:05;;;;;;;6.47;2.20;;;;;;;4.33;100.00;100499.25;5061848;28;20556;-65
2023/02/02 03:37:31;;;;;;;9.27;3.33;;;;;;;4.30;100.00;100510.88;5080813;28;20500;-65
2023/02/02 03:39:59;;;;;;;11.03;3.00;;;;;;;4.32;100.00;100509.00;5076981;28;20484;-65
2023/02/02 03:42:25;;;;;;;7.13;3.00;;;;;;;4.33;100.00;100510.69;5065050;28;20582;-65
2023/02/02 03:44:52;;;;;;;11.20;3.03;;;;;;;4.34;100.00;100516.84;5081600;28;20452;-64
2023/02/02 03:47:19;;;;;;;15.90;3.40;;;;;;;4.39;100.00;100521.84;5061718;28;20497;-64
2023/02/02 03:49:45;;;;;;;9.63;2.80;;;;;;;4.44;100.00;100517.13;5074496;28;20494;-64
2023/02/02 03:52:13;;;;;;;15.90;3.50;;;;;;;4.45;100.00;100519.66;5079998;28;20508;-64
2023/02/02 03:54:40;;;;;;;20.03;4.13;;;;;;;4.52;100.00;100521.00;5081611;28;20507;-65
2023/02/02 03:57:06;;;;;;;14.37;3.70;;;;;;;4.57;100.00;100517.22;5060830;28;21032;-65
2023/02/02 03:59:33;;;;;;;8.07;3.17;;;;;;;4.58;100.00;100521.56;5068838;28;20452;-66
2023/02/02 04:01:59;;;;;;;13.93;4.30;;;;;;;4.59;100.00;100521.47;5080730;28;20491;-66
2023/02/02 04:04:26;;;;;;;11.30;3.63;;;;;;;4.61;100.00;100521.38;5067013;28;20446;-66
2023/02/02 04:06:57;;;;;;;23.10;3.23;;;;;;;4.58;100.00;100518.91;5064517;28;20516;-67
2023/02/02 04:09:25;;;;;;;8.77;3.20;;;;;;;4.62;100.00;100521.28;5076103;28;20463;-65
2023/02/02 04:11:52;;;;;;;10.43;3.83;;;;;;;4.71;100.00;100527.81;5068214;28;20544;-67
2023/02/02 04:14:18;;;;;;;15.03;3.37;;;;;;;4.56;100.00;100524.28;5064449;28;20476;-65
2023/02/02 04:16:45;;;;;;;11.10;3.63;;;;;;;4.61;100.00;100530.16;5064385;28;20489;-66
2023/02/02 04:19:12;;;;;;;7.70;3.60;;;;;;;4.69;100.00;100529.69;5064981;28;20472;-65
2023/02/02 04:21:39;;;;;;;19.20;5.20;;;;;;;4.67;100.00;100534.22;5064005;28;20481;-66
2023/02/02 04:24:06;;;;;;;13.73;3.37;;;;;;;4.69;100.00;100529.69;5065248;28;20467;-65
2023/02/02 04:26:34;;;;;;;16.93;3.83;;;;;;;4.72;100.00;100548.03;5064285;28;20476;-65
2023/02/02 04:29:01;;;;;;;7.83;3.87;;;;;;;4.68;100.00;100536.78;5064255;28;20477;-65
2023/02/02 04:31:28;;;;;;;12.27;4.10;;;;;;;4.76;100.00;100538.13;5067732;28;20522;-66
2023/02/02 04:33:55;;;;;;;8.90;3.70;;;;;;;4.68;100.00;100527.97;5084649;28;20523;-65
2023/02/02 04:36:23;;;;;;;11.80;3.20;;;;;;;4.69;100.00;100537.66;5082934;28;20563;-65
2023/02/02 04:38:49;;;;;;;13.63;3.67;;;;;;;4.71;100.00;100533.09;5084521;28;20508;-65
2023/02/02 04:41:17;;;;;;;10.67;3.97;;;;;;;4.78;100.00;100539.72;5084050;28;20495;-66
2023/02/02 04:43:45;;;;;;;14.37;4.03;;;;;;;4.73;100.00;100541.78;5066816;28;20489;-66
2023/02/02 04:46:12;;;;;;;13.80;4.43;;;;;;;4.79;100.00;100529.94;5063626;28;20507;-65
2023/02/02 04:48:40;;;;;;;19.60;4.10;;;;;;;4.84;100.00;100541.97;5064603;28;20470;-65
2023/02/02 04:51:08;;;;;;;13.40;3.50;;;;;;;4.90;100.00;100546.88;5062954;28;20491;-65
2023/02/02 04:53:35;;;;;;;15.17;4.17;;;;;;;4.81;100.00;100536.88;5080944;28;20524;-64
2023/02/02 04:56:05;;;;;;;11.30;3.77;;;;;;;4.81;100.00;100536.00;5072441;28;20485;-64
2023/02/02 04:58:32;;;;;;;15.47;3.43;;;;;;;4.90;100.00;100538.09;5063768;28;20879;-64
2023/02/02 05:01:00;;;;;;;12.97;3.90;;;;;;;5.01;100.00;100540.06;5063128;28;20505;-64
2023/02/02 05:03:26;;;;;;;11.03;2.90;;;;;;;4.94;100.00;100541.38;5063839;28;20437;-65
2023/02/02 05:06:01;;;;;;;14.10;4.00;;;;;;;4.92;100.00;100545.94;5065868;28;20491;-65
2023/02/02 05:08:27;;;;;;;18.03;4.37;;;;;;;4.95;100.00;100543.06;5066288;28;21103;-66
2023/02/02 05:10:54;;;;;;;12.70;3.57;;;;;;;4.97;100.00;100546.50;5062772;28;20488;-66
2023/02/02 05:13:21;;;;;;;12.03;3.17;;;;;;;4.85;100.00;100538.38;5063648;28;20469;-66
2023/02/02 05:15:48;;;;;;;9.67;2.57;;;;;;;5.04;100.00;100548.66;5059762;28;20496;-66
2023/02/02 05:18:16;;;;;;;15.30;2.33;;;;;;;5.08;100.00;100544.84;5064037;28;20464;-66
2023/02/02 05:20:42;;;;;;;13.90;2.70;;;;;;;5.09;100.00;100546.56;5079792;28;20484;-66
2023/02/02 05:23:09;;;;;;;8.20;2.63;;;;;;;5.06;100.00;100548.56;5083435;28;20444;-66
2023/02/02 05:25:36;;;;;;;8.30;2.20;;;;;;;5.15;100.00;100550.59;5069171;28;20472;-66
2023/02/02 05:28:12;;;;;;;7.03;2.87;;;;;;;5.08;100.00;100547.50;5055621;28;20454;-65
2023/02/02 05:30:39;;;;;;;11.10;3.03;;;;;;;5.14;100.00;100546.28;5062486;28;20559;-66
2023/02/02 05:33:06;;;;;;;7.03;3.33;;;;;;;5.08;100.00;100544.00;5068592;28;20484;-65
2023/02/02 05:35:34;;;;;;;11.33;2.87;;;;;;;5.06;100.00;100551.22;5059251;28;20476;-65
2023/02/02 05:38:00;;;;;;;7.67;2.00;;;;;;;5.03;100.00;100552.25;5047112;28;20516;-65
2023/02/02 05:40:27;;;;;;;5.07;2.27;;;;;;;5.03;100.00;100549.59;5076416;28;20500;-65
2023/02/02 05:42:54;;;;;;;5.33;1.77;;;;;;;5.01;100.00;100550.66;5062887;28;20943;-65
2023/02/02 05:45:21;;;;;;;9.50;1.80;;;;;;;5.12;100.00;100558.78;5063767;28;20474;-65
2023/02/02 05:47:47;;;;;;;6.50;2.73;;;;;;;5.05;100.00;100554.78;5065910;28;20445;-65
2023/02/02 05:50:14;;;;;;;3.87;1.53;;;;;;;5.15;100.00;100563.88;5061867;28;21321;-66
2023/02/02 05:52:42;;;;;;;7.43;2.00;;;;;;;5.13;100.00;100556.97;5062472;28;21033;-65
2023/02/02 05:55:10;;;;;;;14.17;2.10;;;;;;;5.20;100.00;100564.41;5062324;28;20508;-65
2023/02/02 05:57:36;;;;;;;9.53;1.80;;;;;;;5.12;100.00;100569.38;5063067;28;20472;-66
2023/02/02 06:00:04;;;;;;;12.07;2.50;;;;;;;5.11;100.00;100575.63;5062464;28;20516;-65
2023/02/02 06:02:32;;;;;;;9.10;1.97;;;;;;;5.11;100.00;100580.06;5061407;28;20481;-67
2023/02/02 06:04:58;;;;;;;9.53;3.00;;;;;;;5.11;100.00;100586.22;5061694;28;20483;-67
2023/02/02 06:07:25;;;;;;;6.93;2.40;;;;;;;5.01;100.00;100585.94;5060580;28;20508;-66
2023/02/02 06:09:53;;;;;;;8.13;2.17;;;;;;;4.93;100.00;100590.00;5062756;28;20492;-66
2023/02/02 06:12:20;;;;;;;9.03;1.70;;;;;;;4.74;100.00;100592.97;5061549;28;20500;-66
2023/02/02 06:14:46;;;;;;;14.00;2.00;;;;;;;4.89;100.00;100589.34;5056785;28;20540;-66
2023/02/02 06:17:13;;;;;;;8.70;2.23;;;;;;;4.95;100.00;100604.00;5053185;28;20992;-66
2023/02/02 06:19:40;;;;;;;5.23;1.70;;;;;;;4.70;100.00;100598.47;5057935;28;20461;-66
2023/02/02 06:22:06;;;;;;;9.07;1.80;;;;;;;4.68;100.00;100594.19;5055044;28;20477;-67
2023/02/02 06:24:33;;;;;;;8.13;2.07;;;;;;;4.74;100.00;100595.59;5063515;28;20475;-66
2023/02/02 06:27:01;;;;;;;5.60;1.37;;;;;;;4.64;100.00;100600.63;5046794;28;20620;-67
2023/02/02 06:29:31;;;;;;;5.17;1.53;;;;;;;4.65;100.00;100602.31;5056728;28;20477;-66
2023/02/02 06:31:57;;;;;;;8.30;1.60;;;;;;;4.74;100.00;100608.84;5043704;28;20502;-67
2023/02/02 06:34:24;;;;;;;6.80;1.77;;;;;;;4.67;100.00;100611.88;5042275;28;20954;-67
2023/02/02 06:36:51;;;;;;;7.13;1.70;;;;;;;4.68;100.00;100615.38;5039896;28;20501;-64
2023/02/02 06:39:17;;;;;;;4.50;1.27;;;;;;;4.57;100.00;100612.56;5067970;28;20553;-64
2023/02/02 06:41:45;;;;;;;6.13;2.00;;;;;;;4.66;100.00;100626.06;5064343;28;20480;-65
2023/02/02 06:44:14;;;;;;;7.63;3.10;;;;;;;4.62;100.00;100626.38;5080285;28;20428;-64
2023/02/02 06:46:41;;;;;;;13.70;1.83;;;;;;;4.67;100.00;100629.56;5061469;28;20556;-65
2023/02/02 06:49:07;;;;;;;7.50;1.30;;;;;;;4.57;100.00;100633.75;5062354;28;20464;-65
2023/02/02 06:51:34;;;;;;;6.57;1.50;;;;;;;4.60;100.00;100628.22;5060202;28;20469;-65
2023/02/02 06:54:02;;;;;;;4.50;1.60;;;;;;;4.53;100.00;100631.25;5079016;28;20491;-65
2023/02/02 06:56:29;;;;;;;2.83;1.57;;;;;;;4.51;100.00;100640.22;5074225;28;20489;-65
2023/02/02 06:58:56;;;;;;;6.87;1.63;;;;;;;4.42;100.00;100633.69;5061485;28;20432;-65
2023/02/02 07:01:24;;;;;;;9.17;2.13;;;;;;;4.31;100.00;100644.94;5076731;28;20507;-64
2023/02/02 07:03:54;;;;;;;3.33;1.93;;;;;;;4.37;100.00;100637.56;5081145;28;20445;-64
2023/02/02 07:06:26;;;;;;;4.13;1.07;;;;;;;4.21;100.00;100634.97;5048346;28;20528;-64
2023/02/02 07:08:53;;;;;;;6.03;1.80;;;;;;;4.28;100.00;100645.09;5075619;28;20445;-65
2023/02/02 07:11:20;;;;;;;5.40;1.30;;;;;;;4.21;100.00;100645.56;5062347;28;20883;-65
2023/02/02 07:13:48;;;;;;;8.50;2.17;;;;;;;4.15;100.00;100652.91;5082093;28;20445;-64
2023/02/02 07:16:15;;;;;;;9.53;2.10;;;;;;;4.24;100.00;100653.34;5080274;28;20508;-64
2023/02/02 07:18:44;;;;;;;4.00;1.67;;;;;;;4.22;100.00;100655.19;5069347;28;20467;-65
2023/02/02 07:21:17;;;;;;;6.17;1.27;;;;;;;4.20;100.00;100657.06;5061413;28;20493;-65
2023/02/02 07:23:43;;;;;;;6.83;2.03;;;;;;;4.16;100.00;100645.81;5061692;28;20461;-65
2023/02/02 07:26:11;;;;;;;10.23;1.57;;;;;;;4.18;100.00;100656.31;5060593;28;20511;-65
2023/02/02 07:28:37;;;;;;;2.97;1.37;;;;;;;4.23;100.00;100649.81;5060914;28;20425;-64
2023/02/02 07:31:13;;;;;;;4.20;1.47;;;;;;;4.11;100.00;100654.03;5061180;28;20493;-65
2023/02/02 07:33:41;;;;;;;8.03;1.97;;;;;;;4.08;100.00;100654.22;5071760;28;20475;-65
2023/02/02 07:36:17;;;;;;;3.13;1.17;;;;;;;4.10;100.00;100660.28;5067691;28;20490;-65
2023/02/02 07:38:44;;;;;;;6.83;2.17;;;;;;;4.01;100.00;100659.94;5063719;28;20445;-65
2023/02/02 07:41:10;;;;;;;4.77;1.50;;;;;;;4.03;100.00;100656.28;5079919;28;20510;-64
2023/02/02 07:43:37;;;;;;;6.17;1.47;;;;;;;4.08;100.00;100654.22;5055675;28;20485;-64
2023/02/02 07:46:07;;;;;;;3.57;1.30;;;;;;;4.07;100.00;100663.09;5057814;28;20552;-64
2023/02/02 07:48:33;;;;;;;4.00;1.20;;;;;;;4.06;100.00;100664.03;5060127;28;20437;-65
2023/02/02 07:51:00;;;;;;;6.80;1.80;;;;;;;4.09;100.00;100666.50;5069590;28;20546;-65
2023/02/02 07:53:29;;;;;;;7.13;1.43;;;;;;;4.10;100.00;100670.00;5075264;28;20465;-65
2023/02/02 07:56:08;;;;;;;2.70;1.37;;;;;;;4.19;100.00;100674.75;5060396;28;20536;-65
2023/02/02 07:58:34;;;;;;;3.77;1.50;;;;;;;4.20;100.00;100675.59;5071499;28;20458;-64
2023/02/02 08:01:02;;;;;;;7.63;1.67;;;;;;;4.19;100.00;100684.50;5068698;28;20483;-65
2023/02/02 08:03:29;;;;;;;4.50;2.23;;;;;;;4.29;100.00;100686.53;5081241;28;20502;-65
2023/02/02 08:05:55;;;;;;;2.80;1.40;;;;;;;4.28;100.00;100686.59;5078475;28;20460;-64
2023/02/02 08:08:22;;;;;;;6.07;1.97;;;;;;;4.26;100.00;100685.84;5068006;28;20477;-64
2023/02/02 08:10:51;;;;;;;5.13;1.80;;;;;;;4.18;100.00;100686.28;5061836;28;20505;-64
2023/02/02 08:13:17;;;;;;;6.07;1.90;;;;;;;4.26;100.00;100685.84;5081073;28;20544;-64
2023/02/02 08:15:44;;;;;;;8.30;1.97;;;;;;;4.23;100.00;100691.31;5079362;28;20914;-64
2023/02/02 08:18:11;;;;;;;8.33;1.60;;;;;;;4.15;100.00;100689.13;5079225;28;20461;-64
2023/02/02 08:20:37;;;;;;;1.83;1.50;;;;;;;4.20;100.00;100687.06;5056804;28;20493;-65
2023/02/02 08:23:04;;;;;;;11.40;2.07;;;;;;;4.13;100.00;100685.69;5071455;28;20475;-64
2023/02/02 08:25:31;;;;;;;2.40;1.47;;;;;;;4.17;100.00;100687.22;5071866;28;20491;-65
2023/02/02 08:28:00;;;;;;;6.70;2.00;;;;;;;4.38;100.00;100697.50;5060400;28;20417;-64
2023/02/02 08:30:26;;;;;;;5.60;1.53;;;;;;;4.38;100.00;100702.81;5075415;28;20476;-65
2023/02/02 08:32:53;;;;;;;5.13;1.83;;;;;;;4.30;100.00;100701.44;5074903;28;20460;-65
2023/02/02 08:35:20;;;;;;;7.17;2.00;;;;;;;4.34;100.00;100707.44;5056349;28;20878;-65
2023/02/02 08:37:48;;;;;;;7.50;1.37;;;;;;;4.36;100.00;100715.25;5071062;28;21008;-65
2023/02/02 08:40:15;;;;;;;3.13;1.40;;;;;;;4.43;100.00;100714.81;5071673;28;20528;-65
2023/02/02 08:42:42;;;;;;;6.00;2.07;;;;;;;4.50;100.00;100710.88;5058436;28;20527;-64
2023/02/02 08:45:10;;;;;;;7.30;2.47;;;;;;;4.40;100.00;100717.66;5073563;28;20460;-65
2023/02/02 08:47:37;;;;;;;6.63;2.80;;;;;;;4.53;100.00;100717.78;5079093;28;20436;-65
2023/02/02 08:50:04;;;;;;;7.07;1.70;;;;;;;4.56;100.00;100717.59;5064683;28;20449;-65
2023/02/02 08:52:31;;;;;;;3.80;1.50;;;;;;;4.61;100.00;100720.81;5062084;28;20477;-65
2023/02/02 08:54:58;;;;;;;7.13;1.93;;;;;;;4.52;100.00;100729.31;5063760;28;20473;-65
2023/02/02 08:57:24;;;;;;;4.23;1.60;;;;;;;4.63;100.00;100729.53;5061339;28;20527;-65
2023/02/02 08:59:51;;;;;;;3.60;2.23;;;;;;;4.55;100.00;100733.56;5062377;28;20453;-65
2023/02/02 09:02:19;;;;;;;4.20;2.00;;;;;;;4.67;100.00;100738.13;5062477;28;20484;-65
2023/02/02 09:04:47;;;;;;;8.10;1.73;;;;;;;4.66;100.00;100742.59;5072976;28;20472;-64
2023/02/02 09:07:14;;;;;;;5.13;1.83;;;;;;;4.71;100.00;100745.81;5081510;28;20472;-65
2023/02/02 09:09:40;;;;;;;6.63;1.80;;;;;;;4.65;100.00;100747.97;5052086;28;20553;-65
2023/02/02 09:12:10;;;;;;;7.70;2.47;;;;;;;4.73;100.00;100748.38;5064836;28;20480;-65
2023/02/02 09:14:37;;;;;;;5.53;1.93;;;;;;;4.80;100.00;100752.38;5062300;28;20941;-65
2023/02/02 09:17:03;;;;;;;4.83;1.33;;;;;;;4.74;100.00;100755.41;5062083;28;20511;-65
2023/02/02 09:19:31;;;;;;;5.43;3.63;;;;;;;4.74;100.00;100758.06;5067768;28;20461;-64
2023/02/02 09:21:58;;;;;;;2.20;1.07;;;;;;;4.76;100.00;100769.41;5066578;28;20503;-64
2023/02/02 09:24:25;;;;;;;5.33;1.80;;;;;;;4.86;100.00;100762.63;5061739;28;20455;-65
2023/02/02 09:26:51;;;;;;;4.50;1.60;;;;;;;4.73;100.00;100772.22;5059279;28;20470;-64
2023/02/02 09:29:18;;;;;;;8.70;2.43;;;;;;;4.63;100.00;100771.91;5057730;28;20490;-64
2023/02/02 09:31:45;;;;;;;6.27;2.30;;;;;;;4.74;100.00;100770.41;5081219;28;20472;-64
2023/02/02 09:34:14;;;;;;;4.17;1.60;;;;;;;4.87;100.00;100779.34;5053715;28;20447;-64
2023/02/02 09:36:42;;;;;;;8.10;2.37;;;;;;;4.99;100.00;100783.09;5058185;28;20572;-65
2023/02/02 09:39:11;;;;;;;11.23;1.57;;;;;;;4.89;100.00;100780.13;5061928;28;20477;-65
2023/02/02 09:42:28;;;;;;;8.70;1.70;;;;;;;4.99;100.00;100788.38;5081089;28;20503;-65
2023/02/02 09:45:01;;;;;;;5.27;1.80;;;;;;;4.84;100.00;100785.72;5081792;28;20459;-65
2023/02/02 09:47:41;;;;;;;5.73;1.77;;;;;;;4.80;100.00;100792.09;5054659;28;20477;-64
2023/02/02 09:50:17;;;;;;;7.77;1.93;;;;;;;4.90;100.00;100798.56;5061177;28;20445;-65
2023/02/02 09:52:46;;;;;;;5.30;1.50;;;;;;;5.05;100.00;100803.91;5064491;28;20460;-64
2023/02/02 09:55:15;;;;;;;11.90;2.03;;;;;;;5.00;100.00;100806.84;5080431;28;20456;-65
2023/02/02 09:57:45;;;;;;;6.30;2.10;;;;;;;4.92;100.00;100805.59;5061569;28;20477;-64
2023/02/02 10:00:31;;;;;;;5.27;1.80;;;;;;;4.99;100.00;100810.44;5070133;28;20456;-65
2023/02/02 10:03:01;;;;;;;4.00;2.10;;;;;;;5.04;100.00;100805.72;5067347;28;20488;-64
2023/02/02 10:05:31;;;;;;;7.10;2.20;;;;;;;5.16;100.00;100821.84;5061173;28;21054;-64
2023/02/02 10:08:02;;;;;;;9.43;2.27;;;;;;;5.15;100.00;100823.59;5061527;28;20453;-65
2023/02/02 10:10:32;;;;;;;7.70;1.70;;;;;;;5.11;100.00;100823.91;5067001;28;20550;-64
2023/02/02 10:13:04;;;;;;;5.67;2.00;;;;;;;5.14;100.00;100823.69;5081248;28;20436;-64
2023/02/02 10:15:37;;;;;;;6.43;1.80;;;;;;;5.33;100.00;100826.97;5051682;28;20539;-65
2023/02/02 10:18:08;;;;;;;6.60;2.43;;;;;;;5.21;100.00;100825.06;5055611;28;20564;-65
2023/02/02 10:20:39;;;;;;;3.60;1.70;;;;;;;5.17;100.00;100820.88;5060617;28;20461;-65
2023/02/02 10:23:15;;;;;;;8.23;1.47;;;;;;;5.23;100.00;100817.88;5060689;28;20487;-64
2023/02/02 10:25:48;;;;;;;6.43;2.10;;;;;;;4.99;100.00;100823.69;5060119;28;20498;-64
2023/02/02 10:28:18;;;;;;;3.60;1.30;;;;;;;5.34;100.00;100822.53;5060710;28;20499;-64
2023/02/02 10:30:46;;;;;;;5.57;1.93;;;;;;;5.26;100.00;100823.84;5060629;28;20504;-64
2023/02/02 10:33:20;;;;;;;7.90;2.17;;;;;;;5.30;100.00;100840.41;5080386;28;20441;-64
2023/02/02 10:35:53;;;;;;;4.77;2.00;;;;;;;5.42;100.00;100831.72;5064565;28;20545;-64
2023/02/02 10:38:25;;;;;;;11.10;2.00;;;;;;;5.39;100.00;100844.31;5065530;28;20473;-64
2023/02/02 10:40:58;;;;;;;8.60;2.20;;;;;;;5.42;100.00;100844.97;5040172;28;20501;-64
2023/02/02 10:43:47;;;;;;;4.37;1.80;;;;;;;5.68;100.00;100849.63;5069258;28;20518;-65
2023/02/02 10:46:17;;;;;;;13.03;1.93;;;;;;;5.55;100.00;100853.03;5080279;28;20499;-65
2023/02/02 10:48:48;;;;;;;10.53;2.03;;;;;;;5.56;100.00;100846.78;5045507;28;20447;-65
2023/02/02 10:51:21;;;;;;;4.07;1.57;;;;;;;5.55;100.00;100849.53;5050404;28;20504;-65
2023/02/02 10:53:51;;;;;;;5.77;2.03;;;;;;;5.54;100.00;100851.34;5061181;28;20569;-64
2023/02/02 10:56:19;;;;;;;9.67;2.70;;;;;;;5.62;100.00;100849.06;5059884;28;20534;-64
2023/02/02 10:58:50;;;;;;;4.80;2.77;;;;;;;5.61;100.00;100865.09;5060092;28;20438;-64
2023/02/02 11:01:21;;;;;;;8.80;1.80;;;;;;;5.73;100.00;100850.19;5059592;28;20482;-65
2023/02/02 11:03:48;;;;;;;8.80;1.73;;;;;;;5.59;100.00;100853.69;5060325;28;20914;-65
2023/02/02 11:09:03;;;;;;;8.63;2.10;;;;;;;5.67;100.00;100864.69;5046556;28;20459;-65
2023/02/02 11:11:32;;;;;;;12.47;2.00;;;;;;;5.84;100.00;100856.53;5077855;28;20512;-65
2023/02/02 11:14:02;;;;;;;11.10;2.40;;;;;;;5.71;100.00;100865.34;5059085;28;20469;-65
2023/02/02 11:16:30;;;;;;;4.87;1.90;;;;;;;5.62;100.00;100862.34;5061954;28;20480;-65
2023/02/02 11:18:57;;;;;;;11.30;3.30;;;;;;;5.45;100.00;100850.09;5060295;28;20438;-65
2023/02/02 11:21:26;;;;;;;6.97;1.70;;;;;;;5.40;100.00;100865.44;5058902;28;20500;-65
2023/02/02 11:24:01;;;;;;;7.57;1.53;;;;;;;5.41;100.00;100863.63;5068436;28;20504;-65
2023/02/02 11:26:41;;;;;;;7.40;2.10;;;;;;;5.80;100.00;100859.50;5044775;28;20507;-65
2023/02/02 11:29:13;;;;;;;11.70;2.03;;;;;;;5.88;100.00;100862.50;5058851;28;21003;-64
2023/02/02 11:31:40;;;;;;;14.87;2.03;;;;;;;5.82;100.00;100852.28;5077709;28;20479;-64
2023/02/02 11:34:17;;;;;;;3.90;1.40;;;;;;;5.69;100.00;100867.25;5071351;28;20449;-65
2023/02/02 11:37:02;;;;;;;5.17;2.20;;;;;;;5.60;100.00;100871.31;5058635;28;20506;-64
2023/02/02 11:39:31;;;;;;;5.90;1.50;;;;;;;5.72;100.00;100875.88;5051743;28;20503;-65
2023/02/02 11:42:00;;;;;;;6.23;1.73;;;;;;;5.88;100.00;100865.16;5060341;28;20489;-65